sensor_id;sensor_type;location;lat;lon;timestamp;P1;durP1;ratioP1;P2;durP2;ratioP2
13493;SDS011;6819;50.886;4.332;2023-05-07T00:00:03;8.73;;;3.42;;
13493;SDS011;6819;50.886;4.332;2023-05-07T00:02:32;9.88;;;3.35;;
13493;SDS011;6819;50.886;4.332;2023-05-07T00:04:58;8.50;;;3.25;;
13493;SDS011;6819;50.886;4.332;2023-05-07T00:07:25;7.25;;;3.20;;
13493;SDS011;6819;50.886;4.332;2023-05-07T00:09:51;7.90;;;3.28;;
13493;SDS011;6819;50.886;4.332;2023-05-07T00:12:17;8.73;;;3.45;;
13493;SDS011;6819;50.886;4.332;2023-05-07T00:14:43;8.55;;;3.45;;
13493;SDS011;6819;50.886;4.332;2023-05-07T00:17:09;7.30;;;3.35;;
13493;SDS011;6819;50.886;4.332;2023-05-07T00:19:35;7.65;;;3.75;;
13493;SDS011;6819;50.886;4.332;2023-05-07T00:22:01;4.93;;;3.10;;
13493;SDS011;6819;50.886;4.332;2023-05-07T00:24:27;5.15;;;3.45;;
13493;SDS011;6819;50.886;4.332;2023-05-07T00:26:53;7.20;;;3.10;;
13493;SDS011;6819;50.886;4.332;2023-05-07T00:29:19;9.85;;;3.20;;
13493;SDS011;6819;50.886;4.332;2023-05-07T00:31:46;7.70;;;2.97;;
13493;SDS011;6819;50.886;4.332;2023-05-07T00:34:12;5.93;;;2.75;;
13493;SDS011;6819;50.886;4.332;2023-05-07T00:36:38;7.22;;;3.20;;
13493;SDS011;6819;50.886;4.332;2023-05-07T00:39:04;8.98;;;3.15;;
13493;SDS011;6819;50.886;4.332;2023-05-07T00:41:30;5.85;;;2.75;;
13493;SDS011;6819;50.886;4.332;2023-05-07T00:43:56;7.57;;;2.95;;
13493;SDS011;6819;50.886;4.332;2023-05-07T00:46:22;8.90;;;3.00;;
13493;SDS011;6819;50.886;4.332;2023-05-07T00:48:52;9.60;;;3.85;;
13493;SDS011;6819;50.886;4.332;2023-05-07T00:51:18;8.32;;;3.13;;
13493;SDS011;6819;50.886;4.332;2023-05-07T00:53:45;10.52;;;3.60;;
13493;SDS011;6819;50.886;4.332;2023-05-07T00:56:12;7.30;;;2.72;;
13493;SDS011;6819;50.886;4.332;2023-05-07T00:58:38;6.68;;;3.00;;
13493;SDS011;6819;50.886;4.332;2023-05-07T01:01:04;7.93;;;2.75;;
13493;SDS011;6819;50.886;4.332;2023-05-07T01:03:31;9.55;;;3.00;;
13493;SDS011;6819;50.886;4.332;2023-05-07T01:05:57;7.57;;;2.72;;
13493;SDS011;6819;50.886;4.332;2023-05-07T01:08:24;5.60;;;3.08;;
13493;SDS011;6819;50.886;4.332;2023-05-07T01:10:52;5.78;;;2.78;;
13493;SDS011;6819;50.886;4.332;2023-05-07T01:13:19;6.45;;;3.17;;
13493;SDS011;6819;50.886;4.332;2023-05-07T01:15:45;5.38;;;2.92;;
13493;SDS011;6819;50.886;4.332;2023-05-07T01:18:12;5.80;;;2.50;;
13493;SDS011;6819;50.886;4.332;2023-05-07T01:20:38;6.47;;;2.80;;
13493;SDS011;6819;50.886;4.332;2023-05-07T01:23:04;6.45;;;2.92;;
13493;SDS011;6819;50.886;4.332;2023-05-07T01:25:32;6.20;;;2.58;;
13493;SDS011;6819;50.886;4.332;2023-05-07T01:27:58;4.97;;;2.50;;
13493;SDS011;6819;50.886;4.332;2023-05-07T01:30:27;5.88;;;2.92;;
13493;SDS011;6819;50.886;4.332;2023-05-07T01:32:57;9.50;;;3.45;;
13493;SDS011;6819;50.886;4.332;2023-05-07T01:35:26;7.53;;;2.72;;
13493;SDS011;6819;50.886;4.332;2023-05-07T01:37:53;9.15;;;3.30;;
13493;SDS011;6819;50.886;4.332;2023-05-07T01:40:20;5.45;;;3.15;;
13493;SDS011;6819;50.886;4.332;2023-05-07T01:42:46;5.63;;;3.15;;
13493;SDS011;6819;50.886;4.332;2023-05-07T01:45:18;7.22;;;3.03;;
13493;SDS011;6819;50.886;4.332;2023-05-07T01:47:44;7.65;;;3.85;;
13493;SDS011;6819;50.886;4.332;2023-05-07T01:50:11;6.80;;;3.08;;
13493;SDS011;6819;50.886;4.332;2023-05-07T01:52:38;7.25;;;2.90;;
13493;SDS011;6819;50.886;4.332;2023-05-07T01:55:04;6.60;;;3.00;;
13493;SDS011;6819;50.886;4.332;2023-05-07T01:57:30;6.35;;;2.80;;
13493;SDS011;6819;50.886;4.332;2023-05-07T01:59:57;4.22;;;2.78;;
13493;SDS011;6819;50.886;4.332;2023-05-07T02:02:23;4.85;;;2.75;;
13493;SDS011;6819;50.886;4.332;2023-05-07T02:04:50;7.68;;;3.03;;
13493;SDS011;6819;50.886;4.332;2023-05-07T02:07:16;5.63;;;2.53;;
13493;SDS011;6819;50.886;4.332;2023-05-07T02:09:42;7.28;;;2.83;;
13493;SDS011;6819;50.886;4.332;2023-05-07T02:12:08;5.82;;;2.47;;
13493;SDS011;6819;50.886;4.332;2023-05-07T02:14:34;5.72;;;2.72;;
13493;SDS011;6819;50.886;4.332;2023-05-07T02:17:00;6.03;;;2.55;;
13493;SDS011;6819;50.886;4.332;2023-05-07T02:19:26;6.65;;;2.72;;
13493;SDS011;6819;50.886;4.332;2023-05-07T02:21:52;6.07;;;2.92;;
13493;SDS011;6819;50.886;4.332;2023-05-07T02:24:19;7.75;;;3.13;;
13493;SDS011;6819;50.886;4.332;2023-05-07T02:26:45;6.50;;;3.08;;
13493;SDS011;6819;50.886;4.332;2023-05-07T02:29:11;15.18;;;3.15;;
13493;SDS011;6819;50.886;4.332;2023-05-07T02:31:37;7.68;;;2.88;;
13493;SDS011;6819;50.886;4.332;2023-05-07T02:34:03;5.22;;;3.00;;
13493;SDS011;6819;50.886;4.332;2023-05-07T02:36:29;8.63;;;2.60;;
13493;SDS011;6819;50.886;4.332;2023-05-07T02:38:55;9.57;;;3.08;;
13493;SDS011;6819;50.886;4.332;2023-05-07T02:41:21;9.15;;;3.90;;
13493;SDS011;6819;50.886;4.332;2023-05-07T02:43:50;4.68;;;2.33;;
13493;SDS011;6819;50.886;4.332;2023-05-07T02:46:16;4.35;;;2.90;;
13493;SDS011;6819;50.886;4.332;2023-05-07T02:48:42;5.43;;;2.90;;
13493;SDS011;6819;50.886;4.332;2023-05-07T02:51:08;4.05;;;2.63;;
13493;SDS011;6819;50.886;4.332;2023-05-07T02:53:34;6.82;;;2.95;;
13493;SDS011;6819;50.886;4.332;2023-05-07T02:56:01;5.43;;;2.33;;
13493;SDS011;6819;50.886;4.332;2023-05-07T02:58:27;7.35;;;2.88;;
13493;SDS011;6819;50.886;4.332;2023-05-07T03:00:53;5.95;;;3.13;;
13493;SDS011;6819;50.886;4.332;2023-05-07T03:03:20;5.03;;;2.83;;
13493;SDS011;6819;50.886;4.332;2023-05-07T03:05:46;6.90;;;3.05;;
13493;SDS011;6819;50.886;4.332;2023-05-07T03:08:12;9.43;;;3.58;;
13493;SDS011;6819;50.886;4.332;2023-05-07T03:10:38;6.25;;;2.70;;
13493;SDS011;6819;50.886;4.332;2023-05-07T03:13:04;7.05;;;3.20;;
13493;SDS011;6819;50.886;4.332;2023-05-07T03:15:30;6.65;;;3.22;;
13493;SDS011;6819;50.886;4.332;2023-05-07T03:17:56;7.47;;;2.88;;
13493;SDS011;6819;50.886;4.332;2023-05-07T03:20:23;5.32;;;3.10;;
13493;SDS011;6819;50.886;4.332;2023-05-07T03:22:49;7.43;;;2.90;;
13493;SDS011;6819;50.886;4.332;2023-05-07T03:25:15;6.20;;;3.38;;
13493;SDS011;6819;50.886;4.332;2023-05-07T03:27:41;6.82;;;3.22;;
13493;SDS011;6819;50.886;4.332;2023-05-07T03:30:08;9.32;;;3.10;;
13493;SDS011;6819;50.886;4.332;2023-05-07T03:32:34;9.23;;;3.45;;
13493;SDS011;6819;50.886;4.332;2023-05-07T03:35:01;5.68;;;2.75;;
13493;SDS011;6819;50.886;4.332;2023-05-07T03:37:27;6.38;;;3.03;;
13493;SDS011;6819;50.886;4.332;2023-05-07T03:39:53;12.30;;;3.63;;
13493;SDS011;6819;50.886;4.332;2023-05-07T03:42:19;6.40;;;3.22;;
13493;SDS011;6819;50.886;4.332;2023-05-07T03:44:46;7.18;;;3.00;;
13493;SDS011;6819;50.886;4.332;2023-05-07T03:47:12;9.25;;;3.10;;
13493;SDS011;6819;50.886;4.332;2023-05-07T03:49:38;9.38;;;3.63;;
13493;SDS011;6819;50.886;4.332;2023-05-07T03:52:07;7.65;;;3.65;;
13493;SDS011;6819;50.886;4.332;2023-05-07T03:54:33;6.47;;;3.05;;
13493;SDS011;6819;50.886;4.332;2023-05-07T03:56:59;7.13;;;3.08;;
13493;SDS011;6819;50.886;4.332;2023-05-07T03:59:25;5.55;;;3.35;;
13493;SDS011;6819;50.886;4.332;2023-05-07T04:01:51;9.38;;;3.35;;
13493;SDS011;6819;50.886;4.332;2023-05-07T04:04:17;7.07;;;3.42;;
13493;SDS011;6819;50.886;4.332;2023-05-07T04:06:43;9.68;;;3.53;;
13493;SDS011;6819;50.886;4.332;2023-05-07T04:09:09;12.38;;;2.88;;
13493;SDS011;6819;50.886;4.332;2023-05-07T04:11:35;5.43;;;2.70;;
13493;SDS011;6819;50.886;4.332;2023-05-07T04:14:01;9.50;;;3.15;;
13493;SDS011;6819;50.886;4.332;2023-05-07T04:16:27;9.07;;;3.13;;
13493;SDS011;6819;50.886;4.332;2023-05-07T04:18:53;7.35;;;2.92;;
13493;SDS011;6819;50.886;4.332;2023-05-07T04:21:20;10.77;;;3.83;;
13493;SDS011;6819;50.886;4.332;2023-05-07T04:23:47;6.57;;;2.60;;
13493;SDS011;6819;50.886;4.332;2023-05-07T04:26:13;7.00;;;2.88;;
13493;SDS011;6819;50.886;4.332;2023-05-07T04:28:40;11.27;;;3.35;;
13493;SDS011;6819;50.886;4.332;2023-05-07T04:31:06;6.10;;;2.65;;
13493;SDS011;6819;50.886;4.332;2023-05-07T04:33:32;8.00;;;3.15;;
13493;SDS011;6819;50.886;4.332;2023-05-07T04:35:59;6.00;;;2.85;;
13493;SDS011;6819;50.886;4.332;2023-05-07T04:38:28;10.20;;;3.95;;
13493;SDS011;6819;50.886;4.332;2023-05-07T04:40:55;9.82;;;3.25;;
13493;SDS011;6819;50.886;4.332;2023-05-07T04:43:22;10.18;;;3.28;;
13493;SDS011;6819;50.886;4.332;2023-05-07T04:45:49;9.15;;;3.28;;
13493;SDS011;6819;50.886;4.332;2023-05-07T04:48:15;9.13;;;3.17;;
13493;SDS011;6819;50.886;4.332;2023-05-07T04:50:41;8.23;;;3.17;;
13493;SDS011;6819;50.886;4.332;2023-05-07T04:53:07;6.93;;;3.42;;
13493;SDS011;6819;50.886;4.332;2023-05-07T04:55:33;7.15;;;3.47;;
13493;SDS011;6819;50.886;4.332;2023-05-07T04:57:59;10.13;;;3.45;;
13493;SDS011;6819;50.886;4.332;2023-05-07T05:00:29;9.00;;;3.40;;
13493;SDS011;6819;50.886;4.332;2023-05-07T05:02:55;6.40;;;2.92;;
13493;SDS011;6819;50.886;4.332;2023-05-07T05:05:21;5.47;;;2.85;;
13493;SDS011;6819;50.886;4.332;2023-05-07T05:07:48;6.13;;;3.53;;
13493;SDS011;6819;50.886;4.332;2023-05-07T05:10:14;8.70;;;3.35;;
13493;SDS011;6819;50.886;4.332;2023-05-07T05:12:41;6.97;;;3.33;;
13493;SDS011;6819;50.886;4.332;2023-05-07T05:15:07;8.57;;;2.95;;
13493;SDS011;6819;50.886;4.332;2023-05-07T05:17:33;5.95;;;2.83;;
13493;SDS011;6819;50.886;4.332;2023-05-07T05:20:00;5.03;;;3.03;;
13493;SDS011;6819;50.886;4.332;2023-05-07T05:22:26;7.72;;;3.38;;
13493;SDS011;6819;50.886;4.332;2023-05-07T05:24:54;9.32;;;3.50;;
13493;SDS011;6819;50.886;4.332;2023-05-07T05:27:21;10.00;;;3.47;;
13493;SDS011;6819;50.886;4.332;2023-05-07T05:29:47;9.75;;;3.38;;
13493;SDS011;6819;50.886;4.332;2023-05-07T05:32:13;10.18;;;3.67;;
13493;SDS011;6819;50.886;4.332;2023-05-07T05:34:39;9.55;;;3.33;;
13493;SDS011;6819;50.886;4.332;2023-05-07T05:37:05;8.25;;;3.58;;
13493;SDS011;6819;50.886;4.332;2023-05-07T05:39:31;8.30;;;4.07;;
13493;SDS011;6819;50.886;4.332;2023-05-07T05:41:58;8.90;;;3.80;;
13493;SDS011;6819;50.886;4.332;2023-05-07T05:44:24;8.57;;;3.95;;
13493;SDS011;6819;50.886;4.332;2023-05-07T05:46:50;10.10;;;3.83;;
13493;SDS011;6819;50.886;4.332;2023-05-07T05:49:16;7.68;;;3.60;;
13493;SDS011;6819;50.886;4.332;2023-05-07T05:51:42;8.52;;;3.65;;
13493;SDS011;6819;50.886;4.332;2023-05-07T05:54:09;9.80;;;4.05;;
13493;SDS011;6819;50.886;4.332;2023-05-07T05:56:36;11.13;;;4.00;;
13493;SDS011;6819;50.886;4.332;2023-05-07T05:59:02;7.40;;;3.47;;
13493;SDS011;6819;50.886;4.332;2023-05-07T06:01:28;10.13;;;3.72;;
13493;SDS011;6819;50.886;4.332;2023-05-07T06:03:54;7.45;;;3.75;;
13493;SDS011;6819;50.886;4.332;2023-05-07T06:06:20;8.25;;;3.65;;
13493;SDS011;6819;50.886;4.332;2023-05-07T06:08:47;7.20;;;3.42;;
13493;SDS011;6819;50.886;4.332;2023-05-07T06:11:13;15.30;;;4.43;;
13493;SDS011;6819;50.886;4.332;2023-05-07T06:13:39;9.60;;;4.07;;
13493;SDS011;6819;50.886;4.332;2023-05-07T06:16:05;11.32;;;3.75;;
13493;SDS011;6819;50.886;4.332;2023-05-07T06:18:32;10.25;;;4.47;;
13493;SDS011;6819;50.886;4.332;2023-05-07T06:20:58;11.07;;;4.40;;
13493;SDS011;6819;50.886;4.332;2023-05-07T06:23:24;9.45;;;3.80;;
13493;SDS011;6819;50.886;4.332;2023-05-07T06:25:50;13.73;;;4.43;;
13493;SDS011;6819;50.886;4.332;2023-05-07T06:28:17;8.38;;;3.92;;
13493;SDS011;6819;50.886;4.332;2023-05-07T06:30:43;7.85;;;3.67;;
13493;SDS011;6819;50.886;4.332;2023-05-07T06:33:09;10.90;;;4.35;;
13493;SDS011;6819;50.886;4.332;2023-05-07T06:35:35;10.32;;;3.97;;
13493;SDS011;6819;50.886;4.332;2023-05-07T06:38:01;10.85;;;4.68;;
13493;SDS011;6819;50.886;4.332;2023-05-07T06:40:28;11.82;;;4.57;;
13493;SDS011;6819;50.886;4.332;2023-05-07T06:42:54;8.02;;;4.18;;
13493;SDS011;6819;50.886;4.332;2023-05-07T06:45:20;9.55;;;4.50;;
13493;SDS011;6819;50.886;4.332;2023-05-07T06:47:47;9.93;;;4.47;;
13493;SDS011;6819;50.886;4.332;2023-05-07T06:50:13;10.23;;;4.68;;
13493;SDS011;6819;50.886;4.332;2023-05-07T06:52:41;10.00;;;4.25;;
13493;SDS011;6819;50.886;4.332;2023-05-07T06:55:08;10.13;;;4.53;;
13493;SDS011;6819;50.886;4.332;2023-05-07T06:57:36;9.50;;;4.63;;
13493;SDS011;6819;50.886;4.332;2023-05-07T07:00:02;15.38;;;4.50;;
13493;SDS011;6819;50.886;4.332;2023-05-07T07:02:29;12.32;;;5.03;;
13493;SDS011;6819;50.886;4.332;2023-05-07T07:04:55;10.73;;;4.55;;
13493;SDS011;6819;50.886;4.332;2023-05-07T07:07:21;11.75;;;4.82;;
13493;SDS011;6819;50.886;4.332;2023-05-07T07:09:47;8.90;;;4.32;;
13493;SDS011;6819;50.886;4.332;2023-05-07T07:12:13;9.35;;;4.18;;
13493;SDS011;6819;50.886;4.332;2023-05-07T07:14:39;8.02;;;4.32;;
13493;SDS011;6819;50.886;4.332;2023-05-07T07:17:05;9.02;;;4.07;;
13493;SDS011;6819;50.886;4.332;2023-05-07T07:19:31;10.15;;;4.25;;
13493;SDS011;6819;50.886;4.332;2023-05-07T07:21:57;7.88;;;3.75;;
13493;SDS011;6819;50.886;4.332;2023-05-07T07:24:24;10.88;;;3.90;;
13493;SDS011;6819;50.886;4.332;2023-05-07T07:26:51;9.93;;;4.78;;
13493;SDS011;6819;50.886;4.332;2023-05-07T07:29:17;7.93;;;4.15;;
13493;SDS011;6819;50.886;4.332;2023-05-07T07:31:44;10.43;;;4.40;;
13493;SDS011;6819;50.886;4.332;2023-05-07T07:34:10;7.85;;;4.13;;
13493;SDS011;6819;50.886;4.332;2023-05-07T07:36:36;9.82;;;4.28;;
13493;SDS011;6819;50.886;4.332;2023-05-07T07:39:03;8.65;;;4.18;;
13493;SDS011;6819;50.886;4.332;2023-05-07T07:41:32;10.07;;;4.50;;
13493;SDS011;6819;50.886;4.332;2023-05-07T07:43:58;13.13;;;3.95;;
13493;SDS011;6819;50.886;4.332;2023-05-07T07:46:24;6.78;;;4.10;;
13493;SDS011;6819;50.886;4.332;2023-05-07T07:48:51;9.77;;;3.83;;
13493;SDS011;6819;50.886;4.332;2023-05-07T07:51:17;10.77;;;4.20;;
13493;SDS011;6819;50.886;4.332;2023-05-07T07:53:44;10.45;;;4.28;;
13493;SDS011;6819;50.886;4.332;2023-05-07T07:56:10;8.00;;;3.78;;
13493;SDS011;6819;50.886;4.332;2023-05-07T07:58:37;6.93;;;3.80;;
13493;SDS011;6819;50.886;4.332;2023-05-07T08:01:04;7.47;;;4.03;;
13493;SDS011;6819;50.886;4.332;2023-05-07T08:03:30;5.90;;;3.55;;
13493;SDS011;6819;50.886;4.332;2023-05-07T08:05:57;7.25;;;3.72;;
13493;SDS011;6819;50.886;4.332;2023-05-07T08:08:23;10.27;;;4.00;;
13493;SDS011;6819;50.886;4.332;2023-05-07T08:10:49;7.05;;;3.75;;
13493;SDS011;6819;50.886;4.332;2023-05-07T08:13:17;13.10;;;4.05;;
13493;SDS011;6819;50.886;4.332;2023-05-07T08:15:43;6.70;;;3.45;;
13493;SDS011;6819;50.886;4.332;2023-05-07T08:18:09;7.80;;;3.60;;
13493;SDS011;6819;50.886;4.332;2023-05-07T08:20:35;7.40;;;3.15;;
13493;SDS011;6819;50.886;4.332;2023-05-07T08:23:04;6.93;;;3.55;;
13493;SDS011;6819;50.886;4.332;2023-05-07T08:25:35;13.32;;;3.75;;
13493;SDS011;6819;50.886;4.332;2023-05-07T08:28:01;8.10;;;3.05;;
13493;SDS011;6819;50.886;4.332;2023-05-07T08:30:28;9.70;;;3.50;;
13493;SDS011;6819;50.886;4.332;2023-05-07T08:32:54;7.30;;;3.10;;
13493;SDS011;6819;50.886;4.332;2023-05-07T08:35:20;7.32;;;3.00;;
13493;SDS011;6819;50.886;4.332;2023-05-07T08:37:46;8.10;;;2.90;;
13493;SDS011;6819;50.886;4.332;2023-05-07T08:40:12;11.93;;;4.00;;
13493;SDS011;6819;50.886;4.332;2023-05-07T08:42:38;11.93;;;3.17;;
13493;SDS011;6819;50.886;4.332;2023-05-07T08:45:08;7.25;;;3.20;;
13493;SDS011;6819;50.886;4.332;2023-05-07T08:47:46;4.90;;;3.08;;
13493;SDS011;6819;50.886;4.332;2023-05-07T08:50:13;7.20;;;3.47;;
13493;SDS011;6819;50.886;4.332;2023-05-07T08:52:39;7.80;;;3.67;;
13493;SDS011;6819;50.886;4.332;2023-05-07T08:55:06;7.22;;;3.38;;
13493;SDS011;6819;50.886;4.332;2023-05-07T08:57:32;6.05;;;3.80;;
13493;SDS011;6819;50.886;4.332;2023-05-07T08:59:58;11.02;;;3.78;;
13493;SDS011;6819;50.886;4.332;2023-05-07T09:02:25;4.70;;;3.25;;
13493;SDS011;6819;50.886;4.332;2023-05-07T09:04:51;4.82;;;3.33;;
13493;SDS011;6819;50.886;4.332;2023-05-07T09:07:18;11.18;;;3.60;;
13493;SDS011;6819;50.886;4.332;2023-05-07T09:09:44;5.75;;;3.13;;
13493;SDS011;6819;50.886;4.332;2023-05-07T09:12:11;5.40;;;2.95;;
13493;SDS011;6819;50.886;4.332;2023-05-07T09:14:37;6.20;;;3.50;;
13493;SDS011;6819;50.886;4.332;2023-05-07T09:17:04;5.93;;;3.40;;
13493;SDS011;6819;50.886;4.332;2023-05-07T09:19:30;5.55;;;3.30;;
13493;SDS011;6819;50.886;4.332;2023-05-07T09:22:02;8.98;;;3.28;;
13493;SDS011;6819;50.886;4.332;2023-05-07T09:24:29;7.47;;;3.55;;
13493;SDS011;6819;50.886;4.332;2023-05-07T09:26:59;7.47;;;3.72;;
13493;SDS011;6819;50.886;4.332;2023-05-07T09:29:26;7.93;;;3.78;;
13493;SDS011;6819;50.886;4.332;2023-05-07T09:31:54;7.95;;;4.18;;
13493;SDS011;6819;50.886;4.332;2023-05-07T09:34:20;5.78;;;3.58;;
13493;SDS011;6819;50.886;4.332;2023-05-07T09:36:46;5.78;;;3.45;;
13493;SDS011;6819;50.886;4.332;2023-05-07T09:39:13;9.70;;;4.90;;
13493;SDS011;6819;50.886;4.332;2023-05-07T09:41:45;5.47;;;3.72;;
13493;SDS011;6819;50.886;4.332;2023-05-07T09:44:12;8.48;;;3.65;;
13493;SDS011;6819;50.886;4.332;2023-05-07T09:46:38;10.15;;;4.10;;
13493;SDS011;6819;50.886;4.332;2023-05-07T09:49:04;5.40;;;3.40;;
13493;SDS011;6819;50.886;4.332;2023-05-07T09:51:38;7.80;;;4.03;;
13493;SDS011;6819;50.886;4.332;2023-05-07T09:54:05;10.98;;;3.58;;
13493;SDS011;6819;50.886;4.332;2023-05-07T09:56:32;12.02;;;5.63;;
13493;SDS011;6819;50.886;4.332;2023-05-07T09:58:59;7.35;;;3.65;;
13493;SDS011;6819;50.886;4.332;2023-05-07T10:01:25;7.38;;;3.03;;
13493;SDS011;6819;50.886;4.332;2023-05-07T10:03:52;6.68;;;2.85;;
13493;SDS011;6819;50.886;4.332;2023-05-07T10:06:19;6.25;;;3.05;;
13493;SDS011;6819;50.886;4.332;2023-05-07T10:08:45;7.68;;;3.03;;
13493;SDS011;6819;50.886;4.332;2023-05-07T10:11:12;8.35;;;3.53;;
13493;SDS011;6819;50.886;4.332;2023-05-07T10:13:39;9.88;;;3.70;;
13493;SDS011;6819;50.886;4.332;2023-05-07T10:16:06;10.13;;;3.75;;
13493;SDS011;6819;50.886;4.332;2023-05-07T10:18:32;8.48;;;3.67;;
13493;SDS011;6819;50.886;4.332;2023-05-07T10:21:04;10.55;;;3.67;;
13493;SDS011;6819;50.886;4.332;2023-05-07T10:23:33;9.30;;;3.90;;
13493;SDS011;6819;50.886;4.332;2023-05-07T10:26:01;10.50;;;3.90;;
13493;SDS011;6819;50.886;4.332;2023-05-07T10:28:28;5.72;;;3.80;;
13493;SDS011;6819;50.886;4.332;2023-05-07T10:31:09;9.18;;;3.83;;
13493;SDS011;6819;50.886;4.332;2023-05-07T10:33:38;9.45;;;3.90;;
13493;SDS011;6819;50.886;4.332;2023-05-07T10:36:05;10.98;;;3.97;;
13493;SDS011;6819;50.886;4.332;2023-05-07T10:38:32;8.57;;;4.43;;
13493;SDS011;6819;50.886;4.332;2023-05-07T10:40:59;12.85;;;4.75;;
13493;SDS011;6819;50.886;4.332;2023-05-07T10:43:25;9.52;;;4.00;;
13493;SDS011;6819;50.886;4.332;2023-05-07T10:46:09;7.90;;;3.92;;
13493;SDS011;6819;50.886;4.332;2023-05-07T10:49:06;7.82;;;3.60;;
13493;SDS011;6819;50.886;4.332;2023-05-07T10:51:22;8.02;;;3.85;;
13493;SDS011;6819;50.886;4.332;2023-05-07T10:53:48;10.30;;;4.00;;
13493;SDS011;6819;50.886;4.332;2023-05-07T10:58:46;9.05;;;3.55;;
13493;SDS011;6819;50.886;4.332;2023-05-07T11:01:12;9.40;;;3.65;;
13493;SDS011;6819;50.886;4.332;2023-05-07T11:06:24;7.63;;;3.75;;
13493;SDS011;6819;50.886;4.332;2023-05-07T11:08:54;9.70;;;3.95;;
13493;SDS011;6819;50.886;4.332;2023-05-07T11:11:54;8.23;;;3.30;;
13493;SDS011;6819;50.886;4.332;2023-05-07T11:14:42;7.07;;;2.72;;
13493;SDS011;6819;50.886;4.332;2023-05-07T11:17:02;6.70;;;3.13;;
13493;SDS011;6819;50.886;4.332;2023-05-07T11:25:04;6.15;;;3.70;;
13493;SDS011;6819;50.886;4.332;2023-05-07T11:27:31;4.32;;;3.00;;
13493;SDS011;6819;50.886;4.332;2023-05-07T11:29:57;6.85;;;3.13;;
13493;SDS011;6819;50.886;4.332;2023-05-07T11:32:32;9.63;;;4.40;;
13493;SDS011;6819;50.886;4.332;2023-05-07T11:34:59;5.50;;;2.70;;
13493;SDS011;6819;50.886;4.332;2023-05-07T11:37:26;4.70;;;2.67;;
13493;SDS011;6819;50.886;4.332;2023-05-07T11:42:31;5.78;;;3.10;;
13493;SDS011;6819;50.886;4.332;2023-05-07T11:44:57;3.92;;;2.70;;
13493;SDS011;6819;50.886;4.332;2023-05-07T11:47:24;6.32;;;3.35;;
13493;SDS011;6819;50.886;4.332;2023-05-07T11:49:53;7.75;;;3.17;;
13493;SDS011;6819;50.886;4.332;2023-05-07T11:52:24;4.82;;;2.28;;
13493;SDS011;6819;50.886;4.332;2023-05-07T11:57:16;6.80;;;2.75;;
13493;SDS011;6819;50.886;4.332;2023-05-07T11:59:42;7.93;;;2.17;;
13493;SDS011;6819;50.886;4.332;2023-05-07T12:02:15;8.68;;;2.60;;
13493;SDS011;6819;50.886;4.332;2023-05-07T12:04:42;4.80;;;2.92;;
13493;SDS011;6819;50.886;4.332;2023-05-07T12:07:11;7.53;;;2.80;;
13493;SDS011;6819;50.886;4.332;2023-05-07T12:09:38;3.50;;;2.60;;
13493;SDS011;6819;50.886;4.332;2023-05-07T12:12:05;4.78;;;3.35;;
13493;SDS011;6819;50.886;4.332;2023-05-07T12:14:31;6.63;;;3.50;;
13493;SDS011;6819;50.886;4.332;2023-05-07T12:16:57;5.60;;;3.15;;
13493;SDS011;6819;50.886;4.332;2023-05-07T12:19:26;6.57;;;2.80;;
13493;SDS011;6819;50.886;4.332;2023-05-07T12:21:52;6.60;;;3.42;;
13493;SDS011;6819;50.886;4.332;2023-05-07T12:24:18;5.07;;;3.58;;
13493;SDS011;6819;50.886;4.332;2023-05-07T12:26:44;7.85;;;3.30;;
13493;SDS011;6819;50.886;4.332;2023-05-07T12:29:10;6.60;;;3.85;;
13493;SDS011;6819;50.886;4.332;2023-05-07T12:31:36;7.38;;;3.40;;
13493;SDS011;6819;50.886;4.332;2023-05-07T12:34:05;6.00;;;3.50;;
13493;SDS011;6819;50.886;4.332;2023-05-07T12:36:38;7.88;;;3.95;;
13493;SDS011;6819;50.886;4.332;2023-05-07T12:39:08;5.60;;;3.38;;
13493;SDS011;6819;50.886;4.332;2023-05-07T12:44:33;8.68;;;4.80;;
13493;SDS011;6819;50.886;4.332;2023-05-07T12:47:02;6.88;;;3.75;;
13493;SDS011;6819;50.886;4.332;2023-05-07T12:49:28;5.25;;;3.65;;
13493;SDS011;6819;50.886;4.332;2023-05-07T12:51:54;7.75;;;4.25;;
13493;SDS011;6819;50.886;4.332;2023-05-07T12:54:28;4.25;;;3.55;;
13493;SDS011;6819;50.886;4.332;2023-05-07T12:57:28;5.28;;;3.08;;
13493;SDS011;6819;50.886;4.332;2023-05-07T12:59:47;6.60;;;3.70;;
13493;SDS011;6819;50.886;4.332;2023-05-07T13:02:13;5.78;;;3.83;;
13493;SDS011;6819;50.886;4.332;2023-05-07T13:04:39;6.68;;;4.03;;
13493;SDS011;6819;50.886;4.332;2023-05-07T13:07:05;6.03;;;3.80;;
13493;SDS011;6819;50.886;4.332;2023-05-07T13:09:31;7.93;;;4.57;;
13493;SDS011;6819;50.886;4.332;2023-05-07T13:11:57;10.00;;;4.53;;
13493;SDS011;6819;50.886;4.332;2023-05-07T13:14:27;6.50;;;4.00;;
13493;SDS011;6819;50.886;4.332;2023-05-07T13:16:53;6.65;;;4.43;;
13493;SDS011;6819;50.886;4.332;2023-05-07T13:19:19;5.75;;;3.92;;
13493;SDS011;6819;50.886;4.332;2023-05-07T13:21:45;5.35;;;3.85;;
13493;SDS011;6819;50.886;4.332;2023-05-07T13:24:12;6.97;;;4.57;;
13493;SDS011;6819;50.886;4.332;2023-05-07T13:26:38;6.68;;;5.18;;
13493;SDS011;6819;50.886;4.332;2023-05-07T13:29:04;5.82;;;4.65;;
13493;SDS011;6819;50.886;4.332;2023-05-07T13:31:30;7.18;;;4.82;;
13493;SDS011;6819;50.886;4.332;2023-05-07T13:33:56;8.10;;;5.10;;
13493;SDS011;6819;50.886;4.332;2023-05-07T13:36:22;8.32;;;5.70;;
13493;SDS011;6819;50.886;4.332;2023-05-07T13:38:50;8.05;;;5.93;;
13493;SDS011;6819;50.886;4.332;2023-05-07T13:41:16;7.03;;;5.78;;
13493;SDS011;6819;50.886;4.332;2023-05-07T13:43:42;7.65;;;5.88;;
13493;SDS011;6819;50.886;4.332;2023-05-07T13:46:08;8.57;;;5.90;;
13493;SDS011;6819;50.886;4.332;2023-05-07T13:48:34;10.27;;;6.85;;
13493;SDS011;6819;50.886;4.332;2023-05-07T13:51:00;9.35;;;6.93;;
13493;SDS011;6819;50.886;4.332;2023-05-07T13:53:26;8.52;;;7.03;;
13493;SDS011;6819;50.886;4.332;2023-05-07T13:55:52;10.95;;;6.22;;
13493;SDS011;6819;50.886;4.332;2023-05-07T13:58:18;10.38;;;6.95;;
13493;SDS011;6819;50.886;4.332;2023-05-07T14:00:44;10.82;;;7.30;;
13493;SDS011;6819;50.886;4.332;2023-05-07T14:03:10;9.50;;;7.55;;
13493;SDS011;6819;50.886;4.332;2023-05-07T14:05:36;10.15;;;7.22;;
13493;SDS011;6819;50.886;4.332;2023-05-07T14:08:03;8.70;;;6.43;;
13493;SDS011;6819;50.886;4.332;2023-05-07T14:10:30;8.07;;;6.78;;
13493;SDS011;6819;50.886;4.332;2023-05-07T14:12:56;9.75;;;6.53;;
13493;SDS011;6819;50.886;4.332;2023-05-07T14:15:22;9.18;;;6.95;;
13493;SDS011;6819;50.886;4.332;2023-05-07T14:17:48;27.13;;;19.13;;
13493;SDS011;6819;50.886;4.332;2023-05-07T14:20:14;10.93;;;7.32;;
13493;SDS011;6819;50.886;4.332;2023-05-07T14:22:41;13.93;;;9.77;;
13493;SDS011;6819;50.886;4.332;2023-05-07T14:25:07;10.32;;;7.93;;
13493;SDS011;6819;50.886;4.332;2023-05-07T14:27:34;10.18;;;7.43;;
13493;SDS011;6819;50.886;4.332;2023-05-07T14:30:00;7.50;;;6.15;;
13493;SDS011;6819;50.886;4.332;2023-05-07T14:32:26;7.90;;;6.32;;
13493;SDS011;6819;50.886;4.332;2023-05-07T14:34:52;11.57;;;7.50;;
13493;SDS011;6819;50.886;4.332;2023-05-07T14:37:18;19.25;;;12.95;;
13493;SDS011;6819;50.886;4.332;2023-05-07T14:39:44;9.52;;;7.57;;
13493;SDS011;6819;50.886;4.332;2023-05-07T14:42:10;9.15;;;7.50;;
13493;SDS011;6819;50.886;4.332;2023-05-07T14:44:37;11.52;;;7.25;;
13493;SDS011;6819;50.886;4.332;2023-05-07T14:47:06;9.30;;;6.32;;
13493;SDS011;6819;50.886;4.332;2023-05-07T14:49:32;14.13;;;8.55;;
13493;SDS011;6819;50.886;4.332;2023-05-07T14:51:59;13.30;;;7.55;;
13493;SDS011;6819;50.886;4.332;2023-05-07T14:54:25;11.32;;;7.65;;
13493;SDS011;6819;50.886;4.332;2023-05-07T14:56:51;10.70;;;7.63;;
13493;SDS011;6819;50.886;4.332;2023-05-07T14:59:18;10.70;;;7.10;;
13493;SDS011;6819;50.886;4.332;2023-05-07T15:01:46;10.95;;;7.43;;
13493;SDS011;6819;50.886;4.332;2023-05-07T15:04:12;10.63;;;8.10;;
13493;SDS011;6819;50.886;4.332;2023-05-07T15:06:38;10.60;;;8.10;;
13493;SDS011;6819;50.886;4.332;2023-05-07T15:09:04;11.30;;;8.02;;
13493;SDS011;6819;50.886;4.332;2023-05-07T15:11:30;10.93;;;7.75;;
13493;SDS011;6819;50.886;4.332;2023-05-07T15:13:56;14.63;;;9.38;;